createdAt,value
2023-07-18T00:02:38.268Z,3.93
2023-07-18T00:05:42.675Z,3.73
2023-07-18T00:08:46.109Z,3.78
2023-07-18T00:11:49.245Z,4.15
2023-07-18T00:14:52.093Z,4.28
2023-07-18T00:17:55.242Z,3.80
2023-07-18T00:20:58.105Z,4.13
2023-07-18T00:24:03.998Z,4.45
2023-07-18T00:27:07.165Z,4.20
2023-07-18T00:30:14.133Z,4.40
2023-07-18T00:33:17.343Z,4.00
2023-07-18T00:36:20.176Z,4.60
2023-07-18T00:39:22.969Z,4.78
2023-07-18T00:42:26.609Z,5.20
2023-07-18T00:45:30.607Z,4.97
2023-07-18T00:48:37.142Z,4.47
2023-07-18T00:51:40.980Z,5.30
2023-07-18T00:54:51.444Z,5.25
2023-07-18T00:57:55.267Z,4.63
2023-07-18T01:00:58.651Z,4.25
2023-07-18T01:04:01.656Z,4.47
2023-07-18T01:07:06.416Z,4.27
2023-07-18T01:10:45.020Z,3.90
2023-07-18T01:13:48.698Z,4.07
2023-07-18T01:16:53.696Z,3.67
2023-07-18T01:19:57.681Z,3.67
2023-07-18T01:23:02.139Z,3.80
2023-07-18T01:26:05.629Z,4.25
2023-07-18T01:29:09.895Z,3.72
2023-07-18T01:32:12.795Z,3.95
2023-07-18T01:35:18.389Z,3.83
2023-07-18T01:38:22.311Z,4.50
2023-07-18T01:41:25.228Z,4.00
2023-07-18T01:44:28.176Z,4.25
2023-07-18T01:47:34.439Z,4.03
2023-07-18T01:50:37.314Z,3.97
2023-07-18T01:53:40.062Z,4.10
2023-07-18T01:56:43.141Z,3.47
2023-07-18T01:59:45.933Z,3.85
2023-07-18T02:02:51.787Z,4.07
2023-07-18T02:05:54.687Z,4.80
2023-07-18T02:09:00.008Z,4.57
2023-07-18T02:12:04.344Z,4.25
2023-07-18T02:15:08.008Z,3.95
2023-07-18T02:18:14.914Z,4.07
2023-07-18T02:21:18.008Z,4.10
2023-07-18T02:24:21.166Z,4.50
2023-07-18T02:27:23.912Z,4.30
2023-07-18T02:30:26.668Z,3.50
2023-07-18T02:33:31.297Z,4.35
2023-07-18T02:36:34.658Z,4.27
2023-07-18T02:39:40.031Z,4.63
2023-07-18T02:42:42.883Z,4.43
2023-07-18T02:45:46.968Z,4.25
2023-07-18T02:48:51.445Z,3.95
2023-07-18T02:51:54.519Z,4.30
2023-07-18T02:54:58.515Z,4.47
2023-07-18T02:58:02.566Z,4.28
2023-07-18T03:01:07.829Z,4.72
2023-07-18T03:04:10.790Z,4.53
2023-07-18T03:07:14.977Z,3.93
2023-07-18T03:10:18.293Z,3.90
2023-07-18T03:13:26.025Z,4.40
2023-07-18T03:16:28.811Z,4.22
2023-07-18T03:19:33.047Z,3.95
2023-07-18T03:22:37.135Z,4.27
2023-07-18T03:25:39.956Z,4.47
2023-07-18T03:28:42.734Z,4.60
2023-07-18T03:31:45.835Z,3.70
2023-07-18T03:34:48.899Z,4.45
2023-07-18T03:37:54.243Z,3.90
2023-07-18T03:41:00.049Z,4.23
2023-07-18T03:44:04.902Z,3.80
2023-07-18T03:47:20.123Z,3.40
2023-07-18T03:50:25.008Z,3.70
2023-07-18T03:53:28.965Z,3.50
2023-07-18T03:56:32.698Z,3.90
2023-07-18T03:59:35.990Z,3.80
2023-07-18T04:02:38.818Z,4.00
2023-07-18T04:05:41.589Z,4.18
2023-07-18T04:08:44.676Z,3.72
2023-07-18T04:11:47.846Z,4.10
2023-07-18T04:14:51.470Z,4.22
2023-07-18T04:17:54.275Z,5.00
2023-07-18T04:21:03.762Z,4.47
2023-07-18T04:24:10.237Z,4.37
2023-07-18T04:27:13.620Z,4.50
2023-07-18T04:30:16.412Z,4.43
2023-07-18T04:33:19.177Z,3.90
2023-07-18T04:36:22.898Z,4.10
2023-07-18T04:39:26.234Z,4.10
2023-07-18T04:42:29.362Z,3.97
2023-07-18T04:45:32.790Z,3.65
2023-07-18T04:48:36.277Z,3.65
2023-07-18T04:51:39.406Z,3.75
2023-07-18T04:54:44.368Z,3.90
2023-07-18T04:57:48.442Z,4.10
2023-07-18T05:00:51.474Z,4.70
2023-07-18T05:03:58.062Z,4.20
2023-07-18T05:07:01.429Z,4.72
2023-07-18T05:10:04.759Z,4.43
2023-07-18T05:13:08.156Z,4.50
2023-07-18T05:16:13.768Z,4.40
2023-07-18T05:19:16.980Z,4.03
2023-07-18T05:22:19.752Z,4.22
2023-07-18T05:25:23.019Z,4.55
2023-07-18T05:28:25.995Z,5.37
2023-07-18T05:31:31.953Z,4.30
2023-07-18T05:34:34.797Z,4.82
2023-07-18T05:37:41.477Z,4.68
2023-07-18T05:40:44.346Z,5.03
2023-07-18T05:43:47.102Z,4.67
2023-07-18T05:46:49.870Z,4.47
2023-07-18T05:49:52.655Z,4.75
2023-07-18T05:52:55.620Z,4.82
2023-07-18T05:55:58.565Z,4.30
2023-07-18T05:59:01.716Z,4.17
2023-07-18T06:02:05.447Z,4.85
2023-07-18T06:05:09.059Z,4.10
2023-07-18T06:08:12.112Z,4.55
2023-07-18T06:11:18.871Z,4.25
2023-07-18T06:14:22.322Z,5.17
2023-07-18T06:17:25.129Z,5.22
2023-07-18T06:20:28.250Z,5.30
2023-07-18T06:23:31.407Z,4.65
2023-07-18T06:26:34.620Z,4.20
2023-07-18T06:29:37.537Z,4.67
2023-07-18T06:32:41.271Z,5.28
2023-07-18T06:35:52.996Z,4.47
2023-07-18T06:38:55.955Z,5.35
2023-07-18T06:41:59.055Z,4.40
2023-07-18T06:45:01.857Z,4.27
2023-07-18T06:48:05.134Z,4.88
2023-07-18T06:51:16.012Z,4.60
2023-07-18T06:54:20.194Z,4.97
2023-07-18T06:57:23.618Z,4.27
2023-07-18T07:00:26.739Z,4.80
2023-07-18T07:03:31.361Z,4.72
2023-07-18T07:06:34.635Z,4.22
2023-07-18T07:09:37.663Z,4.72
2023-07-18T07:12:40.785Z,4.50
2023-07-18T07:15:43.542Z,4.50
2023-07-18T07:18:50.560Z,4.40
2023-07-18T07:21:53.347Z,3.97
2023-07-18T07:24:56.517Z,4.75
2023-07-18T07:28:00.638Z,4.20
2023-07-18T07:31:06.804Z,4.80
2023-07-18T07:34:09.629Z,4.95
2023-07-18T07:37:12.419Z,4.80
2023-07-18T07:40:16.636Z,4.15
2023-07-18T07:43:20.699Z,3.80
2023-07-18T07:46:24.025Z,4.13
2023-07-18T07:49:27.469Z,4.13
2023-07-18T07:52:30.255Z,4.80
2023-07-18T07:55:33.071Z,4.20
2023-07-18T07:58:38.177Z,4.17
2023-07-18T08:01:41.166Z,4.20
2023-07-18T08:04:44.817Z,4.20
2023-07-18T08:07:48.009Z,4.40
2023-07-18T08:10:50.848Z,4.30
2023-07-18T08:13:54.780Z,4.43
2023-07-18T08:16:57.729Z,3.93
2023-07-18T08:20:01.001Z,4.60
2023-07-18T08:23:04.819Z,4.43
2023-07-18T08:26:08.409Z,4.45
2023-07-18T08:29:11.541Z,5.23
2023-07-18T08:32:14.518Z,4.20
2023-07-18T08:35:17.345Z,4.15
2023-07-18T08:38:20.329Z,4.45
2023-07-18T08:41:23.396Z,4.38
2023-07-18T08:44:26.370Z,4.20
2023-07-18T08:47:29.546Z,4.43
2023-07-18T08:50:34.934Z,4.90
2023-07-18T08:53:40.936Z,4.32
2023-07-18T08:56:46.750Z,3.97
2023-07-18T08:59:50.264Z,5.30
2023-07-18T09:02:53.111Z,4.10
2023-07-18T09:05:56.328Z,4.25
2023-07-18T09:08:59.281Z,4.00
2023-07-18T09:12:05.514Z,4.68
2023-07-18T09:15:09.273Z,4.73
2023-07-18T09:18:14.170Z,3.97
2023-07-18T09:21:18.013Z,4.80
2023-07-18T09:24:33.375Z,3.70
2023-07-18T09:27:39.717Z,4.70
2023-07-18T09:30:42.753Z,4.87
2023-07-18T09:33:47.884Z,4.70
2023-07-18T09:37:02.593Z,5.93
2023-07-18T09:40:08.382Z,4.80
2023-07-18T09:43:13.018Z,4.68
2023-07-18T09:46:17.084Z,4.17
2023-07-18T09:49:24.719Z,4.23
2023-07-18T09:52:29.432Z,5.30
2023-07-18T09:55:35.618Z,4.93
2023-07-18T09:58:40.592Z,5.20
2023-07-18T10:01:44.488Z,4.43
2023-07-18T10:04:49.459Z,4.70
2023-07-18T10:07:53.240Z,4.45
2023-07-18T10:11:09.174Z,5.00
2023-07-18T10:14:13.600Z,4.60
2023-07-18T10:17:30.700Z,4.70
2023-07-18T10:20:36.393Z,4.30
2023-07-18T10:23:42.520Z,4.32
2023-07-18T10:26:59.134Z,4.57
2023-07-18T10:30:05.538Z,4.55
2023-07-18T10:33:20.472Z,4.23
2023-07-18T10:36:26.735Z,4.60
2023-07-18T10:39:40.739Z,4.10
2023-07-18T10:42:44.997Z,4.13
2023-07-18T10:45:50.541Z,4.72
2023-07-18T10:48:53.995Z,3.70
2023-07-18T10:51:57.276Z,4.03
2023-07-18T10:55:01.940Z,4.45
2023-07-18T10:58:11.291Z,5.38
2023-07-18T11:01:14.179Z,4.90
2023-07-18T11:04:17.539Z,4.47
2023-07-18T11:07:37.113Z,5.07
2023-07-18T11:10:41.480Z,4.55
2023-07-18T11:13:44.810Z,4.78
2023-07-18T11:16:48.704Z,4.97
2023-07-18T11:19:51.499Z,4.03
2023-07-18T11:22:54.684Z,5.30
2023-07-18T11:25:58.611Z,5.35
2023-07-18T11:29:02.695Z,4.63
2023-07-18T11:32:06.027Z,5.03
2023-07-18T11:35:19.357Z,4.70
2023-07-18T11:38:25.622Z,4.67
2023-07-18T11:41:36.326Z,4.80
2023-07-18T11:44:43.718Z,4.22
2023-07-18T11:47:49.204Z,4.53
2023-07-18T11:50:52.461Z,4.70
2023-07-18T11:53:55.673Z,5.43
2023-07-18T11:56:58.758Z,5.63
2023-07-18T12:00:02.336Z,5.22
2023-07-18T12:03:15.666Z,4.85
2023-07-18T12:06:20.738Z,4.40
2023-07-18T12:09:24.108Z,5.10
2023-07-18T12:12:27.404Z,4.85
2023-07-18T12:15:30.675Z,4.00
2023-07-18T12:18:34.292Z,5.32
2023-07-18T12:21:37.772Z,4.47
2023-07-18T12:24:40.772Z,5.00
2023-07-18T12:27:46.845Z,5.72
2023-07-18T12:30:49.664Z,5.78
2023-07-18T12:33:53.243Z,5.22
2023-07-18T12:36:56.272Z,3.93
2023-07-18T12:39:59.035Z,5.03
2023-07-18T12:43:01.864Z,4.78
2023-07-18T12:46:07.692Z,5.00
2023-07-18T12:49:10.847Z,5.20
2023-07-18T12:52:14.218Z,4.87
2023-07-18T12:55:17.691Z,4.60
2023-07-18T12:58:20.490Z,4.70
2023-07-18T13:01:24.057Z,4.63
2023-07-18T13:04:26.829Z,5.03
2023-07-18T13:07:29.938Z,5.03
2023-07-18T13:10:32.837Z,5.07
2023-07-18T13:13:35.986Z,4.55
2023-07-18T13:16:40.548Z,4.38
2023-07-18T13:19:43.545Z,4.15
2023-07-18T13:22:47.587Z,5.47
2023-07-18T13:25:50.604Z,5.13
2023-07-18T13:28:53.504Z,4.78
2023-07-18T13:31:56.385Z,4.90
2023-07-18T13:34:59.829Z,5.07
2023-07-18T13:38:02.878Z,5.10
2023-07-18T13:41:09.288Z,4.83
2023-07-18T13:44:12.314Z,5.45
2023-07-18T13:47:17.382Z,5.18
2023-07-18T13:50:31.475Z,5.40
2023-07-18T13:53:35.339Z,5.20
2023-07-18T13:56:38.558Z,4.27
2023-07-18T13:59:46.452Z,5.55
2023-07-18T14:02:50.880Z,4.93
2023-07-18T14:05:59.739Z,5.45
2023-07-18T14:09:02.846Z,5.17
2023-07-18T14:12:06.634Z,5.67
2023-07-18T14:15:10.084Z,6.07
2023-07-18T14:18:13.434Z,5.15
2023-07-18T14:21:16.645Z,5.78
2023-07-18T14:24:21.015Z,4.80
2023-07-18T14:27:23.934Z,5.60
2023-07-18T14:30:26.729Z,5.35
2023-07-18T14:33:29.812Z,4.70
2023-07-18T14:36:32.584Z,5.75
2023-07-18T14:39:40.783Z,5.30
2023-07-18T14:42:44.477Z,6.17
2023-07-18T14:45:47.356Z,5.45
2023-07-18T14:48:50.444Z,6.03
2023-07-18T14:51:53.297Z,5.07
2023-07-18T14:54:58.282Z,5.73
2023-07-18T14:58:01.753Z,5.20
2023-07-18T15:01:06.462Z,5.10
2023-07-18T15:04:09.524Z,5.55
2023-07-18T15:07:12.407Z,5.30
2023-07-18T15:10:15.633Z,5.00
2023-07-18T15:13:18.398Z,6.23
2023-07-18T15:16:21.663Z,5.18
2023-07-18T15:19:27.759Z,5.25
2023-07-18T15:22:30.674Z,5.97
2023-07-18T15:25:34.675Z,5.63
2023-07-18T15:28:42.894Z,4.93
2023-07-18T15:31:45.768Z,6.45
2023-07-18T15:34:48.601Z,4.82
2023-07-18T15:37:51.437Z,4.90
2023-07-18T15:40:54.181Z,5.07
2023-07-18T15:43:57.733Z,6.47
2023-07-18T15:47:01.065Z,5.38
2023-07-18T15:50:04.173Z,5.93
2023-07-18T15:53:07.033Z,6.22
2023-07-18T15:56:15.525Z,5.13
2023-07-18T15:59:19.775Z,4.97
2023-07-18T16:02:23.236Z,5.05
2023-07-18T16:05:28.983Z,5.22
2023-07-18T16:08:34.861Z,5.55
2023-07-18T16:11:39.382Z,5.30
2023-07-18T16:14:42.489Z,5.07
2023-07-18T16:17:45.667Z,5.53
2023-07-18T16:20:49.196Z,5.10
2023-07-18T16:23:53.133Z,5.95
2023-07-18T16:26:55.939Z,5.03
2023-07-18T16:30:01.898Z,5.47
2023-07-18T16:33:05.079Z,5.10
2023-07-18T16:36:08.152Z,5.10
2023-07-18T16:42:29.636Z,4.80
2023-07-18T16:45:33.243Z,4.73
2023-07-18T16:48:36.921Z,3.92
2023-07-18T16:51:39.919Z,4.63
2023-07-18T16:54:42.928Z,4.40
2023-07-18T16:57:47.492Z,4.57
2023-07-18T17:00:50.655Z,5.00
2023-07-18T17:03:58.552Z,4.30
2023-07-18T17:07:01.368Z,5.18
2023-07-18T17:10:05.731Z,4.57
2023-07-18T17:13:09.658Z,3.90
2023-07-18T17:16:15.299Z,4.23
2023-07-18T17:19:18.103Z,4.45
2023-07-18T17:22:20.867Z,4.25
2023-07-18T17:25:25.068Z,4.03
2023-07-18T17:28:29.920Z,4.57
2023-07-18T17:31:32.976Z,4.03
2023-07-18T17:34:36.867Z,4.60
2023-07-18T17:37:41.456Z,4.25
2023-07-18T17:40:44.448Z,4.30
2023-07-18T17:43:47.159Z,3.93
2023-07-18T17:46:51.103Z,4.30
2023-07-18T17:49:53.874Z,4.00
2023-07-18T17:52:57.757Z,3.80
2023-07-18T17:56:02.007Z,4.28
2023-07-18T17:59:11.195Z,4.23
2023-07-18T18:02:14.349Z,3.90
2023-07-18T18:05:49.195Z,4.28
2023-07-18T18:08:52.002Z,4.43
2023-07-18T18:11:57.266Z,4.40
2023-07-18T18:15:03.927Z,4.13
2023-07-18T18:18:06.894Z,4.93
2023-07-18T18:21:10.111Z,3.83
2023-07-18T18:24:13.187Z,3.78
2023-07-18T18:27:16.407Z,4.30
2023-07-18T18:30:19.581Z,4.13
2023-07-18T18:33:23.405Z,5.00
2023-07-18T18:36:28.234Z,5.15
2023-07-18T18:39:31.517Z,5.07
2023-07-18T18:42:34.990Z,5.00
2023-07-18T18:45:38.493Z,4.20
2023-07-18T18:48:41.756Z,5.20
2023-07-18T18:51:45.299Z,4.75
2023-07-18T18:54:48.632Z,4.88
2023-07-18T18:57:52.381Z,4.60
2023-07-18T19:00:58.340Z,4.30
2023-07-18T19:04:01.294Z,4.10
2023-07-18T19:07:05.098Z,4.68
2023-07-18T19:10:13.921Z,4.45
2023-07-18T19:13:16.754Z,4.50
2023-07-18T19:16:32.901Z,4.47
2023-07-18T19:19:44.430Z,4.50
2023-07-18T19:22:49.986Z,4.93
2023-07-18T19:25:52.836Z,4.47
2023-07-18T19:28:55.672Z,4.65
2023-07-18T19:31:58.620Z,5.20
2023-07-18T19:35:04.418Z,4.67
2023-07-18T19:38:07.419Z,5.30
2023-07-18T19:41:10.170Z,4.65
2023-07-18T19:44:14.893Z,4.38
2023-07-18T19:47:17.918Z,4.43
2023-07-18T19:50:21.449Z,4.53
2023-07-18T19:53:25.908Z,4.35
2023-07-18T19:56:28.758Z,3.88
2023-07-18T19:59:32.333Z,4.30
2023-07-18T20:02:35.480Z,4.10
2023-07-18T20:05:38.918Z,4.20
2023-07-18T20:08:42.202Z,4.53
2023-07-18T20:11:45.000Z,4.20
2023-07-18T20:14:48.528Z,4.28
2023-07-18T20:17:51.846Z,3.80
2023-07-18T20:20:54.901Z,4.17
2023-07-18T20:23:58.302Z,4.13
2023-07-18T20:27:01.882Z,3.85
2023-07-18T20:30:09.546Z,4.38
2023-07-18T20:33:12.270Z,3.80
2023-07-18T20:36:21.014Z,3.80
2023-07-18T20:39:27.585Z,3.88
2023-07-18T20:42:34.679Z,3.45
2023-07-18T20:45:38.213Z,4.28
2023-07-18T20:48:41.063Z,3.67
2023-07-18T20:51:43.893Z,3.90
2023-07-18T20:54:46.758Z,4.57
2023-07-18T20:57:49.742Z,3.75
2023-07-18T21:00:52.604Z,4.00
2023-07-18T21:03:55.381Z,4.30
2023-07-18T21:06:59.358Z,3.73
2023-07-18T21:10:02.190Z,4.55
2023-07-18T21:13:06.732Z,3.63
2023-07-18T21:16:12.947Z,3.03
2023-07-18T21:19:15.828Z,3.17
2023-07-18T21:22:18.618Z,2.13
2023-07-18T21:25:21.588Z,2.97
2023-07-18T21:28:24.417Z,2.08
2023-07-18T21:31:27.177Z,1.60
2023-07-18T21:34:30.621Z,2.40
2023-07-18T21:37:33.338Z,4.17
2023-07-18T21:40:36.168Z,2.80
2023-07-18T21:43:39.120Z,1.92
2023-07-18T21:46:41.983Z,1.90
2023-07-18T21:49:45.464Z,1.77
2023-07-18T21:52:48.317Z,2.40
2023-07-18T21:55:51.074Z,2.33
2023-07-18T21:58:54.805Z,1.60
2023-07-18T22:01:58.425Z,1.60
2023-07-18T22:05:11.607Z,1.90
2023-07-18T22:08:14.433Z,1.50
2023-07-18T22:11:17.460Z,1.75
2023-07-18T22:14:20.781Z,1.77
2023-07-18T22:17:23.695Z,1.80
2023-07-18T22:20:26.449Z,2.03
2023-07-18T22:23:30.350Z,2.00
2023-07-18T22:26:33.175Z,2.10
2023-07-18T22:29:36.171Z,1.92
2023-07-18T22:32:38.999Z,1.90
2023-07-18T22:35:45.515Z,2.10
2023-07-18T22:38:48.684Z,2.00
2023-07-18T22:41:53.191Z,1.60
2023-07-18T22:44:56.258Z,1.45
2023-07-18T22:48:00.218Z,2.20
2023-07-18T22:51:03.256Z,2.15
2023-07-18T22:54:06.130Z,2.00
2023-07-18T22:57:09.402Z,1.85
2023-07-18T23:00:13.818Z,2.30
2023-07-18T23:03:16.786Z,1.98
2023-07-18T23:06:19.864Z,1.80
2023-07-18T23:09:22.949Z,2.40
2023-07-18T23:12:25.668Z,2.03
2023-07-18T23:15:30.205Z,2.30
2023-07-18T23:18:33.027Z,2.03
2023-07-18T23:21:36.175Z,2.13
2023-07-18T23:24:41.073Z,1.63
2023-07-18T23:27:44.342Z,1.95
2023-07-18T23:30:47.140Z,1.77
2023-07-18T23:33:49.950Z,2.20
2023-07-18T23:36:54.094Z,2.00
2023-07-18T23:39:57.649Z,1.70
2023-07-18T23:43:00.751Z,1.80
2023-07-18T23:46:04.667Z,1.70
2023-07-18T23:49:07.676Z,1.70
2023-07-18T23:52:10.768Z,1.90
2023-07-18T23:55:13.729Z,2.30
2023-07-18T23:58:17.204Z,1.90
